createdAt,value
2024-05-09T00:00:48.531Z,12.09
2024-05-09T00:01:48.435Z,12.06
2024-05-09T00:02:48.410Z,12.06
2024-05-09T00:03:48.475Z,12.04
2024-05-09T00:04:48.430Z,12.04
2024-05-09T00:05:48.409Z,12.07
2024-05-09T00:06:48.343Z,12.04
2024-05-09T00:07:48.413Z,12.03
2024-05-09T00:08:48.350Z,12.04
2024-05-09T00:09:48.296Z,12.04
2024-05-09T00:10:48.398Z,12.04
2024-05-09T00:11:48.390Z,12.06
2024-05-09T00:12:48.278Z,12.04
2024-05-09T00:13:48.295Z,12.04
2024-05-09T00:14:48.287Z,12.09
2024-05-09T00:15:48.240Z,12.09
2024-05-09T00:16:48.256Z,12.07
2024-05-09T00:17:48.380Z,12.07
2024-05-09T00:18:48.323Z,12.12
2024-05-09T00:19:48.287Z,12.13
2024-05-09T00:20:48.316Z,12.13
2024-05-09T00:21:48.171Z,12.07
2024-05-09T00:22:48.276Z,12.00
2024-05-09T00:23:48.165Z,12.02
2024-05-09T00:24:48.154Z,12.04
2024-05-09T00:25:48.211Z,12.06
2024-05-09T00:26:48.140Z,12.09
2024-05-09T00:27:48.123Z,12.07
2024-05-09T00:28:48.216Z,12.12
2024-05-09T00:29:48.136Z,12.13
2024-05-09T00:30:48.136Z,12.15
2024-05-09T00:31:48.185Z,12.17
2024-05-09T00:32:48.249Z,12.20
2024-05-09T00:33:48.220Z,12.20
2024-05-09T00:34:48.075Z,12.24
2024-05-09T00:35:48.066Z,12.24
2024-05-09T00:36:48.064Z,12.20
2024-05-09T00:37:48.065Z,12.22
2024-05-09T00:38:48.030Z,12.25
2024-05-09T00:39:47.997Z,12.28
2024-05-09T00:40:48.093Z,12.29
2024-05-09T00:41:48.035Z,12.35
2024-05-09T00:42:47.973Z,12.35
2024-05-09T00:43:48.033Z,12.36
2024-05-09T00:44:47.962Z,12.32
2024-05-09T00:45:47.946Z,12.20
2024-05-09T00:46:48.006Z,12.15
2024-05-09T00:47:48.151Z,12.20
2024-05-09T00:48:48.086Z,12.18
2024-05-09T00:49:48.008Z,12.20
2024-05-09T00:50:48.022Z,12.20
2024-05-09T00:51:47.896Z,12.20
2024-05-09T00:52:47.921Z,12.18
2024-05-09T00:53:47.938Z,12.17
2024-05-09T00:54:47.948Z,12.13
2024-05-09T00:55:47.996Z,12.18
2024-05-09T00:56:47.856Z,12.18
2024-05-09T00:57:47.849Z,12.18
2024-05-09T00:58:47.883Z,12.18
2024-05-09T00:59:47.802Z,12.20
2024-05-09T01:00:47.923Z,12.20
2024-05-09T01:01:48.374Z,12.18
2024-05-09T01:02:47.889Z,12.15
2024-05-09T01:03:51.021Z,12.13
2024-05-09T01:04:47.880Z,12.15
2024-05-09T01:05:47.803Z,12.12
2024-05-09T01:06:47.771Z,12.09
2024-05-09T01:07:47.762Z,12.06
2024-05-09T01:08:47.724Z,12.02
2024-05-09T01:09:47.761Z,11.99
2024-05-09T01:10:48.678Z,11.91
2024-05-09T01:11:47.883Z,11.81
2024-05-09T01:12:47.698Z,11.73
2024-05-09T01:13:47.709Z,11.69
2024-05-09T01:14:47.681Z,11.63
2024-05-09T01:15:47.657Z,11.62
2024-05-09T01:16:47.761Z,11.63
2024-05-09T01:17:47.909Z,11.66
2024-05-09T01:18:47.722Z,11.66
2024-05-09T01:19:47.787Z,11.66
2024-05-09T01:20:47.606Z,11.68
2024-05-09T01:21:48.146Z,11.68
2024-05-09T01:22:47.620Z,11.68
2024-05-09T01:23:47.574Z,11.70
2024-05-09T01:24:47.577Z,11.69
2024-05-09T01:25:47.614Z,11.73
2024-05-09T01:26:47.564Z,11.75
2024-05-09T01:27:47.546Z,11.72
2024-05-09T01:28:47.560Z,11.69
2024-05-09T01:29:47.510Z,11.68
2024-05-09T01:30:47.515Z,11.60
2024-05-09T01:31:47.635Z,11.45
2024-05-09T01:32:47.660Z,11.36
2024-05-09T01:33:47.667Z,11.37
2024-05-09T01:34:47.529Z,11.37
2024-05-09T01:35:47.448Z,11.41
2024-05-09T01:36:47.455Z,11.44
2024-05-09T01:37:47.627Z,11.40
2024-05-09T01:38:47.440Z,11.40
2024-05-09T01:39:47.442Z,11.43
2024-05-09T01:40:47.499Z,11.41
2024-05-09T01:41:47.414Z,11.41
2024-05-09T01:42:47.461Z,11.41
2024-05-09T01:43:47.453Z,11.41
2024-05-09T01:44:47.407Z,11.41
2024-05-09T01:45:47.378Z,11.37
2024-05-09T01:46:47.428Z,11.32
2024-05-09T01:47:47.399Z,11.19
2024-05-09T01:48:47.477Z,11.07
2024-05-09T01:49:47.346Z,10.92
2024-05-09T01:50:47.508Z,10.74
2024-05-09T01:51:47.312Z,10.78
2024-05-09T01:52:47.398Z,10.84
2024-05-09T01:53:47.288Z,10.90
2024-05-09T01:54:47.286Z,10.92
2024-05-09T01:55:47.286Z,10.94
2024-05-09T01:56:47.249Z,10.90
2024-05-09T01:57:47.238Z,10.94
2024-05-09T01:58:47.304Z,10.93
2024-05-09T01:59:47.265Z,10.93
2024-05-09T02:00:47.330Z,10.93
2024-05-09T02:01:56.554Z,10.89
2024-05-09T02:02:47.439Z,10.90
2024-05-09T02:03:47.382Z,10.89
2024-05-09T02:04:47.289Z,10.90
2024-05-09T02:05:47.994Z,10.90
2024-05-09T02:06:47.146Z,10.94
2024-05-09T02:07:47.192Z,10.99
2024-05-09T02:08:47.160Z,10.97
2024-05-09T02:09:47.222Z,10.97
2024-05-09T02:10:47.822Z,11.00
2024-05-09T02:11:47.190Z,11.04
2024-05-09T02:12:47.081Z,11.04
2024-05-09T02:13:47.119Z,11.04
2024-05-09T02:14:47.096Z,11.04
2024-05-09T02:15:47.083Z,11.04
2024-05-09T02:16:47.098Z,11.02
2024-05-09T02:17:47.248Z,11.02
2024-05-09T02:18:47.194Z,11.04
2024-05-09T02:19:47.099Z,11.07
2024-05-09T02:20:47.079Z,11.00
2024-05-09T02:21:47.024Z,10.96
2024-05-09T02:22:47.013Z,10.94
2024-05-09T02:23:47.002Z,10.92
2024-05-09T02:24:47.003Z,10.86
2024-05-09T02:25:47.030Z,10.81
2024-05-09T02:26:46.983Z,10.74
2024-05-09T02:27:46.938Z,10.76
2024-05-09T02:28:47.106Z,10.81
2024-05-09T02:29:46.941Z,10.86
2024-05-09T02:30:46.940Z,10.87
2024-05-09T02:31:46.988Z,10.90
2024-05-09T02:32:47.120Z,10.94
2024-05-09T02:33:47.222Z,10.94
2024-05-09T02:34:46.948Z,10.96
2024-05-09T02:35:46.870Z,10.99
2024-05-09T02:36:46.845Z,11.02
2024-05-09T02:37:46.882Z,11.04
2024-05-09T02:38:46.828Z,11.04
2024-05-09T02:39:46.873Z,11.05
2024-05-09T02:40:46.890Z,11.04
2024-05-09T02:41:46.817Z,11.02
2024-05-09T02:42:46.792Z,10.97
2024-05-09T02:43:46.822Z,10.93
2024-05-09T02:44:46.801Z,10.86
2024-05-09T02:45:46.782Z,10.72
2024-05-09T02:46:46.793Z,10.60
2024-05-09T02:47:46.892Z,10.49
2024-05-09T02:48:46.840Z,10.53
2024-05-09T02:49:46.808Z,10.63
2024-05-09T02:50:46.937Z,10.67
2024-05-09T02:51:46.709Z,10.72
2024-05-09T02:52:46.751Z,10.76
2024-05-09T02:53:46.759Z,10.79
2024-05-09T02:54:46.682Z,10.79
2024-05-09T02:55:46.812Z,10.79
2024-05-09T02:56:46.689Z,10.82
2024-05-09T02:57:46.644Z,10.87
2024-05-09T02:58:46.698Z,10.89
2024-05-09T02:59:46.648Z,10.90
2024-05-09T03:00:46.697Z,10.79
2024-05-09T03:01:46.794Z,10.81
2024-05-09T03:02:46.661Z,10.69
2024-05-09T03:03:46.714Z,10.59
2024-05-09T03:04:46.722Z,10.41
2024-05-09T03:05:47.079Z,10.35
2024-05-09T03:06:46.588Z,10.38
2024-05-09T03:07:46.604Z,10.44
2024-05-09T03:08:46.608Z,10.53
2024-05-09T03:09:47.173Z,10.57
2024-05-09T03:10:46.544Z,10.61
2024-05-09T03:11:46.697Z,10.67
2024-05-09T03:12:46.540Z,10.71
2024-05-09T03:13:46.511Z,10.75
2024-05-09T03:14:46.493Z,10.76
2024-05-09T03:15:46.501Z,10.78
2024-05-09T03:16:46.506Z,10.69
2024-05-09T03:17:46.653Z,10.72
2024-05-09T03:18:46.523Z,10.79
2024-05-09T03:19:46.466Z,10.87
2024-05-09T03:20:46.461Z,10.90
2024-05-09T03:21:46.410Z,10.97
2024-05-09T03:22:46.481Z,11.00
2024-05-09T03:23:46.496Z,11.04
2024-05-09T03:24:46.381Z,11.07
2024-05-09T03:25:46.405Z,11.12
2024-05-09T03:26:46.361Z,11.14
2024-05-09T03:27:46.365Z,11.17
2024-05-09T03:28:46.382Z,11.17
2024-05-09T03:29:46.363Z,11.17
2024-05-09T03:30:46.322Z,11.19
2024-05-09T03:31:46.381Z,11.19
2024-05-09T03:32:46.513Z,11.25
2024-05-09T03:33:46.427Z,11.26
2024-05-09T03:34:46.312Z,11.29
2024-05-09T03:35:46.494Z,11.30
2024-05-09T03:36:46.381Z,11.30
2024-05-09T03:37:46.280Z,11.27
2024-05-09T03:38:46.394Z,11.12
2024-05-09T03:39:46.242Z,11.04
2024-05-09T03:40:46.424Z,10.94
2024-05-09T03:41:46.210Z,10.84
2024-05-09T03:42:46.192Z,10.72
2024-05-09T03:43:46.228Z,10.71
2024-05-09T03:44:46.200Z,10.75
2024-05-09T03:45:46.179Z,10.78
2024-05-09T03:46:46.194Z,10.82
2024-05-09T03:47:46.561Z,10.89
2024-05-09T03:48:46.330Z,10.92
2024-05-09T03:49:46.192Z,10.93
2024-05-09T03:50:46.191Z,10.97
2024-05-09T03:51:46.127Z,11.02
2024-05-09T03:52:46.133Z,11.04
2024-05-09T03:53:46.165Z,11.10
2024-05-09T03:54:46.119Z,11.15
2024-05-09T03:55:46.111Z,11.18
2024-05-09T03:56:46.126Z,11.19
2024-05-09T03:57:46.121Z,11.15
2024-05-09T03:58:46.093Z,11.04
2024-05-09T03:59:46.033Z,10.92
2024-05-09T04:00:46.426Z,10.72
2024-05-09T04:01:46.205Z,10.61
2024-05-09T04:02:46.080Z,10.49
2024-05-09T04:03:46.313Z,10.40
2024-05-09T04:04:46.080Z,10.44
2024-05-09T04:05:46.323Z,10.46
2024-05-09T04:06:45.986Z,10.56
2024-05-09T04:07:46.016Z,10.59
2024-05-09T04:08:46.004Z,10.61
2024-05-09T04:09:45.934Z,10.71
2024-05-09T04:10:46.100Z,10.75
2024-05-09T04:11:46.037Z,10.78
2024-05-09T04:12:45.909Z,10.78
2024-05-09T04:13:45.929Z,10.76
2024-05-09T04:14:45.896Z,10.74
2024-05-09T04:15:45.881Z,10.69
2024-05-09T04:16:45.913Z,10.61
2024-05-09T04:17:46.031Z,10.57
2024-05-09T04:18:46.082Z,10.59
2024-05-09T04:19:45.878Z,10.64
2024-05-09T04:20:45.870Z,10.68
2024-05-09T04:21:45.827Z,10.72
2024-05-09T04:22:45.839Z,10.75
2024-05-09T04:23:45.880Z,10.76
2024-05-09T04:24:45.783Z,10.81
2024-05-09T04:25:46.039Z,10.86
2024-05-09T04:26:45.793Z,10.86
2024-05-09T04:27:45.764Z,10.92
2024-05-09T04:28:45.787Z,10.93
2024-05-09T04:29:45.772Z,10.93
2024-05-09T04:30:45.723Z,10.87
2024-05-09T04:31:45.796Z,10.81
2024-05-09T04:32:45.871Z,10.86
2024-05-09T04:33:45.812Z,10.92
2024-05-09T04:34:45.737Z,10.97
2024-05-09T04:35:45.805Z,10.96
2024-05-09T04:36:45.676Z,11.00
2024-05-09T04:37:45.718Z,11.00
2024-05-09T04:38:45.664Z,10.93
2024-05-09T04:39:45.638Z,10.89
2024-05-09T04:40:45.686Z,10.89
2024-05-09T04:41:45.641Z,10.87
2024-05-09T04:42:45.673Z,10.93
2024-05-09T04:43:45.656Z,11.00
2024-05-09T04:44:45.589Z,11.12
2024-05-09T04:45:45.618Z,11.18
2024-05-09T04:46:45.622Z,11.29
2024-05-09T04:47:45.697Z,11.47
2024-05-09T04:48:45.815Z,11.63
2024-05-09T04:49:45.612Z,11.81
2024-05-09T04:50:45.650Z,11.94
2024-05-09T04:51:45.764Z,12.10
2024-05-09T04:52:45.522Z,12.25
2024-05-09T04:53:45.597Z,12.54
2024-05-09T04:54:45.492Z,12.82
2024-05-09T04:55:45.662Z,13.05
2024-05-09T04:56:45.532Z,13.15
2024-05-09T04:57:45.466Z,13.19
2024-05-09T04:58:45.516Z,13.18
2024-05-09T04:59:45.458Z,13.15
2024-05-09T05:00:45.574Z,13.23
2024-05-09T05:01:45.498Z,13.23
2024-05-09T05:02:46.036Z,13.25
2024-05-09T05:03:45.509Z,13.35
2024-05-09T05:04:45.695Z,13.50
2024-05-09T05:05:46.165Z,13.53
2024-05-09T05:06:45.384Z,13.59
2024-05-09T05:07:45.388Z,13.78
2024-05-09T05:08:45.434Z,13.79
2024-05-09T05:09:45.438Z,13.63
2024-05-09T05:10:45.840Z,13.75
2024-05-09T05:11:45.408Z,14.07
2024-05-09T05:12:45.315Z,14.30
2024-05-09T05:13:45.353Z,14.51
2024-05-09T05:14:45.320Z,14.69
2024-05-09T05:15:45.278Z,14.92
2024-05-09T05:16:45.320Z,15.04
2024-05-09T05:17:45.404Z,14.96
2024-05-09T05:18:45.298Z,15.15
2024-05-09T05:19:45.386Z,15.22
2024-05-09T05:20:59.811Z,15.37
2024-05-09T05:21:45.231Z,15.40
2024-05-09T05:22:45.246Z,15.35
2024-05-09T05:23:45.261Z,15.39
2024-05-09T05:24:45.199Z,15.43
2024-05-09T05:25:45.243Z,15.57
2024-05-09T05:26:45.207Z,15.55
2024-05-09T05:27:45.153Z,15.54
2024-05-09T05:28:45.251Z,15.24
2024-05-09T05:29:45.189Z,14.92
2024-05-09T05:30:45.820Z,14.66
2024-05-09T05:31:45.245Z,14.88
2024-05-09T05:32:45.187Z,14.82
2024-05-09T05:33:45.209Z,14.91
2024-05-09T05:34:45.120Z,14.88
2024-05-09T05:35:45.152Z,14.62
2024-05-09T05:36:45.103Z,14.36
2024-05-09T05:37:45.095Z,14.29
2024-05-09T05:38:45.264Z,14.26
2024-05-09T05:39:45.044Z,14.28
2024-05-09T05:40:45.102Z,14.50
2024-05-09T05:41:45.044Z,14.70
2024-05-09T05:42:45.017Z,14.88
2024-05-09T05:43:45.045Z,14.96
2024-05-09T05:44:45.012Z,14.96
2024-05-09T05:45:44.979Z,15.00
2024-05-09T05:46:45.021Z,15.09
2024-05-09T05:47:45.290Z,15.19
2024-05-09T05:48:45.091Z,15.07
2024-05-09T05:49:45.015Z,15.14
2024-05-09T05:50:45.067Z,15.14
2024-05-09T05:51:44.933Z,15.02
2024-05-09T05:52:44.960Z,15.00
2024-05-09T05:53:44.980Z,14.88
2024-05-09T05:54:44.901Z,14.55
2024-05-09T05:55:44.967Z,14.28
2024-05-09T05:56:44.945Z,14.20
2024-05-09T05:57:44.898Z,14.08
2024-05-09T05:58:45.127Z,14.08
2024-05-09T05:59:44.851Z,14.07
2024-05-09T06:00:45.058Z,14.08
2024-05-09T06:01:44.832Z,14.04
2024-05-09T06:02:45.051Z,14.03
2024-05-09T06:03:45.023Z,13.99
2024-05-09T06:04:44.879Z,14.05
2024-05-09T06:05:44.912Z,14.14
2024-05-09T06:06:44.805Z,14.26
2024-05-09T06:07:44.816Z,14.25
2024-05-09T06:08:45.002Z,14.35
2024-05-09T06:09:47.419Z,14.65
2024-05-09T06:10:44.935Z,14.62
2024-05-09T06:11:44.778Z,14.63
2024-05-09T06:12:44.713Z,14.63
2024-05-09T06:13:44.804Z,14.51
2024-05-09T06:14:44.697Z,14.60
2024-05-09T06:15:44.694Z,14.72
2024-05-09T06:16:44.707Z,14.85
2024-05-09T06:17:45.031Z,14.96
2024-05-09T06:18:44.829Z,15.28
2024-05-09T06:19:44.849Z,16.16
2024-05-09T06:20:44.755Z,16.76
2024-05-09T06:21:44.635Z,17.20
2024-05-09T06:22:44.670Z,17.83
2024-05-09T06:23:44.707Z,17.82
2024-05-09T06:24:44.621Z,17.74
2024-05-09T06:25:44.783Z,18.38
2024-05-09T06:26:44.660Z,18.75
2024-05-09T06:27:44.571Z,18.81
2024-05-09T06:28:44.603Z,19.56
2024-05-09T06:29:44.577Z,20.62
2024-05-09T06:30:44.550Z,21.27
2024-05-09T06:31:44.568Z,21.93
2024-05-09T06:32:44.671Z,22.50
2024-05-09T06:33:44.624Z,23.03
2024-05-09T06:34:44.696Z,23.43
2024-05-09T06:35:45.035Z,23.65
2024-05-09T06:36:44.468Z,23.55
2024-05-09T06:37:44.515Z,23.83
2024-05-09T06:38:44.518Z,24.23
2024-05-09T06:39:44.443Z,24.42
2024-05-09T06:40:44.913Z,24.54
2024-05-09T06:41:44.497Z,24.54
2024-05-09T06:42:44.431Z,24.80
2024-05-09T06:43:44.596Z,25.01
2024-05-09T06:44:44.448Z,24.60
2024-05-09T06:45:44.434Z,24.50
2024-05-09T06:46:44.427Z,24.45
2024-05-09T06:47:44.521Z,24.21
2024-05-09T06:48:44.734Z,24.08
2024-05-09T06:49:44.447Z,23.84
2024-05-09T06:50:44.445Z,23.56
2024-05-09T06:51:44.338Z,23.68
2024-05-09T06:52:44.517Z,24.26
2024-05-09T06:53:44.317Z,24.85
2024-05-09T06:54:44.305Z,25.36
2024-05-09T06:55:44.326Z,25.73
2024-05-09T06:56:44.374Z,25.95
2024-05-09T06:57:44.278Z,25.88
2024-05-09T06:58:44.290Z,25.87
2024-05-09T06:59:44.328Z,25.95
2024-05-09T07:00:44.315Z,26.00
2024-05-09T07:01:44.242Z,26.23
2024-05-09T07:02:44.467Z,26.25
2024-05-09T07:03:44.328Z,26.23
2024-05-09T07:04:44.238Z,25.80
2024-05-09T07:05:45.239Z,25.36
2024-05-09T07:06:44.216Z,25.35
2024-05-09T07:07:44.197Z,25.66
2024-05-09T07:08:44.216Z,25.80
2024-05-09T07:09:44.186Z,26.07
2024-05-09T07:10:44.394Z,26.22
2024-05-09T07:11:44.228Z,26.38
2024-05-09T07:12:44.139Z,26.81
2024-05-09T07:13:44.211Z,27.03
2024-05-09T07:14:44.163Z,27.12
2024-05-09T07:15:44.118Z,27.20
2024-05-09T07:16:44.122Z,27.45
2024-05-09T07:17:44.274Z,27.65
2024-05-09T07:18:44.191Z,27.92
2024-05-09T07:19:44.077Z,28.10
2024-05-09T07:20:44.113Z,28.25
2024-05-09T07:21:44.049Z,28.29
2024-05-09T07:22:44.042Z,28.20
2024-05-09T07:23:46.850Z,28.41
2024-05-09T07:24:44.034Z,28.49
2024-05-09T07:25:44.059Z,28.69
2024-05-09T07:26:44.123Z,28.75
2024-05-09T07:27:44.004Z,28.81
2024-05-09T07:28:44.045Z,28.86
2024-05-09T07:29:44.042Z,28.82
2024-05-09T07:30:44.004Z,28.70
2024-05-09T07:31:43.948Z,28.91
2024-05-09T07:32:44.161Z,28.97
2024-05-09T07:33:44.029Z,29.01
2024-05-09T07:34:43.944Z,28.72
2024-05-09T07:35:44.002Z,28.12
2024-05-09T07:36:43.908Z,28.07
2024-05-09T07:37:43.922Z,28.37
2024-05-09T07:38:44.120Z,28.64
2024-05-09T07:39:43.986Z,28.81
2024-05-09T07:40:43.913Z,28.74
2024-05-09T07:41:43.949Z,28.89
2024-05-09T07:42:43.863Z,28.89
2024-05-09T07:43:43.868Z,28.51
2024-05-09T07:44:43.946Z,27.95
2024-05-09T07:45:51.477Z,27.17
2024-05-09T07:51:32.044Z,28.12
2024-05-09T07:53:37.302Z,28.25
2024-05-09T07:53:51.381Z,28.59
2024-05-09T07:54:23.878Z,28.74
2024-05-09T07:55:23.819Z,28.91
2024-05-09T07:56:24.564Z,28.79
2024-05-09T07:57:23.725Z,28.86
2024-05-09T07:58:23.663Z,29.17
2024-05-09T07:59:23.811Z,29.20
2024-05-09T08:00:29.605Z,29.20
2024-05-09T08:01:24.647Z,29.32
2024-05-09T08:02:23.817Z,29.31
2024-05-09T08:03:23.989Z,29.27
2024-05-09T08:04:26.461Z,29.14
2024-05-09T08:05:23.738Z,29.27
2024-05-09T08:06:23.612Z,29.45
2024-05-09T08:07:23.643Z,29.42
2024-05-09T08:08:23.606Z,29.10
2024-05-09T08:09:23.572Z,29.08
2024-05-09T08:10:28.534Z,28.93
2024-05-09T08:11:23.628Z,28.94
2024-05-09T08:12:23.532Z,29.20
2024-05-09T08:13:23.636Z,29.39
2024-05-09T08:14:23.543Z,29.63
2024-05-09T08:15:23.581Z,29.57
2024-05-09T08:16:23.834Z,28.93
2024-05-09T08:17:23.631Z,28.59
2024-05-09T08:18:23.591Z,28.01
2024-05-09T08:19:23.577Z,28.35
2024-05-09T08:20:30.929Z,28.54
2024-05-09T08:21:23.492Z,28.56
2024-05-09T08:22:23.605Z,28.76
2024-05-09T08:23:23.483Z,28.91
2024-05-09T08:24:23.458Z,29.10
2024-05-09T08:25:23.458Z,28.88
2024-05-09T08:26:23.469Z,28.51
2024-05-09T08:27:23.438Z,28.62
2024-05-09T08:28:23.490Z,28.10
2024-05-09T08:29:23.405Z,27.92
2024-05-09T08:30:30.100Z,27.98
2024-05-09T08:31:23.521Z,28.25
2024-05-09T08:32:23.502Z,27.64
2024-05-09T08:33:23.510Z,27.37
2024-05-09T08:34:23.453Z,27.14
2024-05-09T08:35:23.389Z,26.63
2024-05-09T08:36:23.471Z,26.60
2024-05-09T08:37:26.211Z,26.74
2024-05-09T08:38:23.342Z,26.85
2024-05-09T08:39:23.314Z,26.99
2024-05-09T08:40:30.745Z,27.11
2024-05-09T08:41:23.354Z,27.10
2024-05-09T08:42:23.316Z,27.14
2024-05-09T08:43:23.588Z,27.48
2024-05-09T08:44:23.277Z,27.67
2024-05-09T08:45:23.299Z,27.22
2024-05-09T08:46:23.371Z,26.58
2024-05-09T08:47:23.414Z,26.44
2024-05-09T08:48:23.525Z,26.63
2024-05-09T08:49:23.425Z,26.88
2024-05-09T08:50:32.058Z,27.10
2024-05-09T08:51:23.235Z,27.17
2024-05-09T08:52:23.251Z,26.65
2024-05-09T08:53:23.256Z,26.45
2024-05-09T08:54:23.230Z,26.47
2024-05-09T08:55:23.196Z,26.34
2024-05-09T08:56:23.199Z,25.98
2024-05-09T08:57:23.181Z,25.73
2024-05-09T08:58:23.207Z,25.58
2024-05-09T08:59:23.153Z,25.38
2024-05-09T09:00:33.453Z,25.35
2024-05-09T09:01:23.279Z,25.16
2024-05-09T09:02:23.362Z,25.03
2024-05-09T09:03:23.233Z,24.85
2024-05-09T09:04:23.252Z,24.80
2024-05-09T09:05:23.267Z,24.60
2024-05-09T09:06:23.120Z,24.38
2024-05-09T09:07:23.208Z,24.06
2024-05-09T09:08:23.091Z,23.95
2024-05-09T09:09:23.099Z,23.83
2024-05-09T09:10:29.720Z,23.71
2024-05-09T09:11:23.113Z,23.63
2024-05-09T09:12:23.085Z,23.44
2024-05-09T09:13:23.079Z,23.28
2024-05-09T09:14:23.078Z,22.75
2024-05-09T09:15:23.091Z,22.36
2024-05-09T09:16:23.298Z,22.11
2024-05-09T09:17:23.127Z,21.96
2024-05-09T09:18:23.083Z,21.98
2024-05-09T09:19:23.417Z,22.07
2024-05-09T09:20:29.127Z,22.08
2024-05-09T09:21:22.981Z,22.10
2024-05-09T09:22:22.989Z,22.13
2024-05-09T09:23:22.960Z,22.07
2024-05-09T09:24:22.947Z,21.96
2024-05-09T09:25:22.944Z,21.93
2024-05-09T09:26:22.971Z,21.89
2024-05-09T09:27:22.929Z,21.82
2024-05-09T09:28:22.981Z,21.83
2024-05-09T09:29:22.916Z,21.76
2024-05-09T09:30:34.058Z,21.72
2024-05-09T09:31:22.951Z,21.66
2024-05-09T09:32:22.904Z,21.60
2024-05-09T09:33:23.052Z,21.46
2024-05-09T09:34:23.067Z,21.43
2024-05-09T09:35:23.047Z,21.39
2024-05-09T09:36:22.920Z,21.67
2024-05-09T09:37:22.951Z,21.93
2024-05-09T09:38:22.847Z,22.32
2024-05-09T09:39:22.815Z,22.68
2024-05-09T09:40:30.985Z,23.20
2024-05-09T09:41:22.883Z,23.80
2024-05-09T09:42:22.865Z,24.32
2024-05-09T09:43:23.237Z,24.84
2024-05-09T09:44:22.781Z,25.47
2024-05-09T09:45:22.852Z,25.99
2024-05-09T09:46:22.856Z,26.37
2024-05-09T09:47:22.938Z,26.97
2024-05-09T09:48:23.309Z,27.47
2024-05-09T09:49:22.827Z,27.83
2024-05-09T09:50:27.960Z,28.32
2024-05-09T09:51:22.681Z,28.69
2024-05-09T09:52:22.768Z,29.08
2024-05-09T09:53:22.704Z,29.35
2024-05-09T09:54:22.675Z,29.65
2024-05-09T09:55:22.809Z,30.12
2024-05-09T09:56:22.664Z,30.46
2024-05-09T09:57:22.673Z,30.73
2024-05-09T09:58:22.817Z,29.97
2024-05-09T09:59:22.622Z,29.26
2024-05-09T10:00:27.432Z,27.90
2024-05-09T10:01:22.714Z,26.84
2024-05-09T10:02:22.785Z,26.38
2024-05-09T10:03:22.709Z,26.09
2024-05-09T10:04:22.658Z,25.98
2024-05-09T10:05:22.707Z,26.80
2024-05-09T10:06:22.569Z,27.65
2024-05-09T10:07:22.592Z,28.11
2024-05-09T10:08:22.567Z,28.70
2024-05-09T10:09:22.523Z,29.14
2024-05-09T10:10:29.949Z,29.20
2024-05-09T10:11:22.694Z,29.81
2024-05-09T10:12:22.502Z,30.32
2024-05-09T10:13:22.640Z,30.88
2024-05-09T10:14:22.482Z,31.14
2024-05-09T10:15:22.468Z,30.00
2024-05-09T10:16:22.560Z,28.44
2024-05-09T10:17:22.499Z,27.60
2024-05-09T10:18:22.504Z,27.35
2024-05-09T10:19:22.642Z,26.68
2024-05-09T10:20:27.922Z,26.31
2024-05-09T10:21:22.430Z,26.51
2024-05-09T10:22:22.472Z,26.23
2024-05-09T10:23:22.387Z,25.53
2024-05-09T10:24:22.430Z,24.92
2024-05-09T10:25:22.653Z,24.33
2024-05-09T10:26:22.382Z,24.08
2024-05-09T10:27:22.365Z,23.87
2024-05-09T10:28:22.405Z,23.78
2024-05-09T10:29:22.423Z,23.69
2024-05-09T10:30:29.728Z,23.59
2024-05-09T10:31:22.375Z,23.55
2024-05-09T10:32:22.432Z,23.62
2024-05-09T10:33:22.385Z,23.69
2024-05-09T10:34:22.553Z,23.76
2024-05-09T10:35:22.272Z,24.65
2024-05-09T10:36:22.429Z,25.07
2024-05-09T10:37:22.403Z,25.03
2024-05-09T10:38:22.235Z,25.60
2024-05-09T10:39:22.280Z,26.92
2024-05-09T10:40:26.629Z,28.07
2024-05-09T10:41:22.303Z,29.12
2024-05-09T10:42:22.193Z,29.78
2024-05-09T10:43:22.360Z,30.37
2024-05-09T10:44:22.227Z,30.78
2024-05-09T10:45:22.214Z,30.39
2024-05-09T10:46:22.217Z,30.50
2024-05-09T10:47:22.225Z,31.10
2024-05-09T10:48:22.280Z,31.78
2024-05-09T10:49:22.201Z,32.43
2024-05-09T10:50:28.344Z,32.46
2024-05-09T10:51:22.152Z,32.59
2024-05-09T10:52:22.180Z,32.90
2024-05-09T10:53:22.211Z,32.77
2024-05-09T10:54:22.089Z,32.36
2024-05-09T10:55:22.344Z,30.99
2024-05-09T10:56:22.104Z,30.24
2024-05-09T10:57:22.073Z,30.46
2024-05-09T10:58:22.098Z,30.13
2024-05-09T10:59:22.102Z,29.57
2024-05-09T11:00:27.808Z,29.20
2024-05-09T11:01:22.159Z,29.50
2024-05-09T11:02:22.896Z,30.59
2024-05-09T11:03:22.062Z,31.21
2024-05-09T11:04:22.093Z,30.51
2024-05-09T11:05:22.360Z,29.90
2024-05-09T11:06:22.007Z,29.34
2024-05-09T11:07:22.134Z,28.64
2024-05-09T11:08:21.989Z,28.26
2024-05-09T11:09:21.959Z,27.90
2024-05-09T11:10:27.769Z,26.99
2024-05-09T11:11:22.016Z,26.07
2024-05-09T11:12:24.357Z,25.36
2024-05-09T11:13:22.067Z,25.23
2024-05-09T11:14:21.927Z,26.73
2024-05-09T11:15:21.920Z,27.93
2024-05-09T11:16:22.251Z,27.45
2024-05-09T11:17:21.976Z,26.90
2024-05-09T11:18:24.992Z,27.17
2024-05-09T11:19:22.126Z,27.29
2024-05-09T11:20:29.107Z,26.40
2024-05-09T11:21:21.879Z,26.52
2024-05-09T11:22:22.023Z,26.62
2024-05-09T11:23:21.867Z,26.63
2024-05-09T11:24:21.849Z,26.22
2024-05-09T11:25:21.832Z,25.93
2024-05-09T11:26:21.841Z,25.80
2024-05-09T11:27:21.811Z,25.59
2024-05-09T11:28:21.886Z,26.18
2024-05-09T11:29:21.825Z,27.00
2024-05-09T11:30:29.589Z,27.58
2024-05-09T11:31:22.132Z,28.23
2024-05-09T11:32:21.791Z,28.96
2024-05-09T11:33:21.795Z,29.78
2024-05-09T11:34:21.822Z,30.68
2024-05-09T11:35:21.744Z,31.55
2024-05-09T11:36:21.745Z,32.36
2024-05-09T11:37:21.815Z,32.97
2024-05-09T11:38:21.692Z,33.74
2024-05-09T11:39:21.709Z,34.17
2024-05-09T11:40:25.703Z,34.54
2024-05-09T11:41:21.690Z,34.99
2024-05-09T11:42:21.675Z,35.42
2024-05-09T11:43:21.796Z,35.36
2024-05-09T11:44:21.646Z,35.17
2024-05-09T11:45:21.664Z,35.36
2024-05-09T11:46:21.848Z,35.30
2024-05-09T11:47:21.766Z,34.20
2024-05-09T11:48:21.726Z,32.83
2024-05-09T11:49:25.368Z,31.92
2024-05-09T11:50:27.314Z,31.29
2024-05-09T11:51:21.619Z,30.96
2024-05-09T11:52:21.621Z,31.73
2024-05-09T11:53:21.598Z,32.59
2024-05-09T11:54:21.568Z,32.86
2024-05-09T11:55:23.230Z,33.45
2024-05-09T11:56:21.592Z,33.86
2024-05-09T11:57:21.538Z,34.03
2024-05-09T11:58:21.619Z,34.25
2024-05-09T11:59:21.529Z,34.40
2024-05-09T12:00:29.511Z,34.74
2024-05-09T12:01:23.081Z,34.60
2024-05-09T12:02:21.844Z,34.57
2024-05-09T12:03:21.662Z,34.50
2024-05-09T12:04:21.653Z,34.29
2024-05-09T12:05:21.583Z,33.22
2024-05-09T12:06:21.491Z,32.93
2024-05-09T12:07:21.654Z,33.01
2024-05-09T12:08:21.506Z,33.01
2024-05-09T12:09:21.446Z,33.37
2024-05-09T12:10:26.097Z,33.50
2024-05-09T12:11:21.467Z,33.80
2024-05-09T12:12:21.458Z,33.89
2024-05-09T12:13:21.612Z,34.29
2024-05-09T12:14:21.416Z,34.58
2024-05-09T12:15:21.389Z,34.32
2024-05-09T12:16:21.584Z,34.48
2024-05-09T12:17:21.463Z,34.75
2024-05-09T12:18:21.399Z,34.85
2024-05-09T12:19:21.475Z,34.73
2024-05-09T12:20:28.684Z,33.52
2024-05-09T12:21:21.330Z,32.70
2024-05-09T12:22:21.397Z,32.82
2024-05-09T12:23:21.329Z,32.12
2024-05-09T12:24:21.298Z,32.75
2024-05-09T12:25:21.439Z,32.29
2024-05-09T12:26:22.032Z,32.59
2024-05-09T12:27:21.290Z,32.63
2024-05-09T12:28:21.442Z,31.92
2024-05-09T12:29:21.254Z,31.69
2024-05-09T12:30:32.272Z,32.59
2024-05-09T12:31:21.297Z,33.11
2024-05-09T12:32:21.369Z,33.11
2024-05-09T12:33:21.440Z,33.46
2024-05-09T12:34:21.398Z,33.42
2024-05-09T12:35:21.211Z,33.53
2024-05-09T12:36:21.240Z,32.75
2024-05-09T12:37:21.268Z,32.48
2024-05-09T12:38:21.193Z,33.04
2024-05-09T12:39:21.245Z,33.40
2024-05-09T12:40:30.697Z,33.96
2024-05-09T12:41:21.189Z,34.54
2024-05-09T12:42:27.233Z,34.80
2024-05-09T12:43:21.189Z,35.10
2024-05-09T12:44:21.130Z,35.11
2024-05-09T12:45:21.141Z,35.11
2024-05-09T12:46:21.250Z,34.99
2024-05-09T12:47:21.176Z,34.85
2024-05-09T12:48:21.183Z,35.11
2024-05-09T12:49:21.354Z,35.12
2024-05-09T12:50:29.186Z,35.19
2024-05-09T12:51:21.065Z,35.41
2024-05-09T12:52:21.075Z,35.56
2024-05-09T12:53:21.098Z,35.55
2024-05-09T12:54:21.037Z,35.46
2024-05-09T12:55:21.053Z,35.49
2024-05-09T12:56:21.051Z,35.46
2024-05-09T12:57:21.026Z,35.73